AirNav   Everest Fuels
 
 451 users online  

23NC Duplin General Hospital Heliport
Kenansville, North Carolina, USA

GOING TO KENANSVILLE?


FAA INFORMATION EFFECTIVE 22 APRIL 2021

Location

FAA Identifier: 23NC
Lat/Long: 34-57-53.1500N 077-57-39.1200W
34-57.885833N 077-57.652000W
34.9647639,-77.9608667
(estimated)
Elevation: 126 ft. / 38 m (estimated)
Variation: 08W (1990)
Time zone: UTC -4 (UTC -5 during Standard Time)
Zip code: 28349

Heliport Operations

Heliport use: Private use, MEDICAL.
Activation date: 04/1995
Control tower: no
ARTCC: WASHINGTON CENTER
FSS: RALEIGH FLIGHT SERVICE STATION
Attendance: UNATNDD
Wind indicator: yes
Segmented circle: no
Lights: FOR PERIMETER LGTS CALL 910-296-0267.
Beacon: white-green-yellow (heliport)
FOR ROTG BCN CALL 910-296-0267.

Heliport Communications

WX AWOS-3 at DPL (2.3 nm NW): 120.675 (910-296-9688)
WX AWOS-3PT at OAJ (19 nm SE): PHONE 910-324-5233
WX AWOS-3 at CTZ (20 nm W): 119.125 (910-592-7488)

Nearby radio navigation aids

VOR radial/distance  VOR name  Freq  Var
ISOr224/31.4KINSTON VORTAC109.6005W
ILMr000/37.0WILMINGTON VORTAC117.0007W

 
NDB name  Hdg/Dist  Freq  Var  ID
CLINTON101/19.741209WCTZ -.-. - --..
DIXON322/34.519808WDIW -.. .. .--

Heliport Services

Runway Information

Helipad H1

Dimensions: 40 x 40 ft. / 12 x 12 m
Surface: concrete
Runway edge lights: PERI
Latitude: 34-57.885833N
Longitude: 077-57.652000W
Elevation: 126.0 ft.
Traffic pattern: leftleft

Heliport Ownership and Management from official FAA records

Ownership: Publicly-owned
Owner: DUPLIN GENERAL HOSPITAL
401 N MAIN STREET
KENANSVILLE, NC 28349
Phone 910-296-0941
Manager: RICHARD E HARRELL
401 N MAIN STREET
KENANSVILLE, NC 28349
Phone 910-296-0267
OTHER CONTACT AVIATION SITE MANAGER 252-847-8287; KHARPER@METROAVIATION.COM

Additional Remarks

A52-H1 45 FT PLINE 75 FT EAST OF HELIPAD.
FOR CD CTC WASHINGTON ARTCC AT 703-771-3587.

Instrument Procedures

There are no published instrument procedures at 23NC.

Some nearby airports with instrument procedures:

KDPL - Duplin County Airport (2 nm NW)
KACZ - Henderson Field Airport (15 nm S)
W40 - Mount Olive Municipal Airport (16 nm N)
KOAJ - Albert J Ellis Airport (19 nm SE)
KCTZ - Clinton-Sampson County Airport (20 nm W)
 
Loc | Ops | Rwys | IFR | FBO | Links
Com | Nav | Svcs | Stats | Notes
Area around 23NC (Duplin General Hospital Heliport)
 
Road maps at: MapQuest Bing Google
 
Aerial photo
No photo
 
Sectional chart

 
Airport distance calculator
Flying to Duplin General Hospital Heliport? Find the distance to fly.

From to 23NC

Sunrise and sunset
Times for 09-May-2021
 Local
(UTC-4)
 Zulu
(UTC)
Morning civil twilight05:4709:47
Sunrise06:1410:14
Sunset20:0200:02
Evening civil twilight20:3000:30

Current date and time
Zulu (UTC)  09-May-2021 06:31:17
Local (UTC-4)  09-May-2021 02:31:17
 
METAR
KDPL 
2nm N 
090615Z AUTO 00000KT 10SM CLR 09/08 A3008 RMK AO2
KOAJ 
19nm SE 
090556Z AUTO 05004KT 10SM CLR 10/09 A3008 RMK AO2 SLP188 T01000089 10200 20100 50001
KCTZ 
20nm W 
090615Z AUTO 00000KT 10SM CLR 12/10 A3008 RMK AO2 T01180095
TAF
KOAJ 
19nm SE 
090520Z 0906/1006 VRB05KT P6SM SCT150 FM091300 17009KT P6SM SCT120 FM091600 19013G23KT P6SM FEW150 AMD LTD TO CLD VIS AND WIND
KGSB 
21nm N 
090400Z 0904/1010 03006KT 9999 SCT080 QNH3005INS BECMG 0914/0915 14010G18KT 9999 FEW050 SCT080 QNH3002INS BECMG 0916/0917 21015G25KT 9999 FEW070 QNH2993INS BECMG 0921/0922 20010KT 9999 FEW200 QNH2985INS TX28/0920Z TN08/0911Z LAST NO AMDS AFT 0904 NEXT 0912
NOTAMs
Click for the latest NOTAMs
NOTAMs are issued by the DoD/FAA and will open in a separate window not controlled by AirNav.

 

 
 

Would you like to see your business listed on this page?

 If your business provides an interesting product or service to pilots, flight crews, aircraft, or users of the Duplin General Hospital Heliport, you should consider listing it here.  To start the listing process, click on the button below
 
Add a business
 

Other Pages about Duplin General Hospital Heliport

Update a link
 
Copyright © AirNav, LLC. All rights reserved. Privacy Policy  Contact